Klamath Falls Airport
KLMT : now visible

Airfield :











YOU CAN JOIN US ON...

 
LOGIN :

Register | Disclaimer

   EN    FR    IT 

 









Legend :    VFR   Marginal VFR   IFR   Intensive IFR   Very Intensive IFR
Visi :
Ceiling :
>= 8 km
>= 3000ft
5 to 8 km
1000 to 3000 ft
1500m to 5 km
500 to 1000 ft
800 to 1500m
200 to 500 ft
< 800m
< 200 ft
Symbols :   Thunderstorms  Fog  Heavy snow  Heavy precipitations  Wind > 20 kt






- Airport Elevation : 4095 ft
- IATA code : LMT


KLMT - Klamath Falls

CURRENT METAR :
  • 041353Z AUTO 16007KT 10SM -RA BKN039 BKN070 OVC080 02/01 A2980 RMK AO2 SLP098 P0001 T00170006

EXPIRED METARs :
  • 041253Z AUTO 17008KT 10SM -RA OVC036 02/01 A2980 RMK AO2 SLP093 P0000 T00170006
  • 041153Z AUTO 16013KT 10SM -RA OVC039 01/00 A2980 RMK AO2 RAB25 SLP092 P0000 60000 T00110000 10033 20011 55002
  • 041129Z AUTO 15013KT 10SM -RA FEW009 BKN039 OVC075 01/00 A2980 RMK AO2 RAB25 P0000 T00110000

TAF KLMT
Valid from the 04 at 12:00 until the 05 at 12:00 UTC


041140Z 0412/0512 17012KT 6SM -RASN FEW009 BKN035 OVC070
TEMPO 0412/0413 5SM -SHSN BKN025 OVC035
FM041300 18010KT 4SM -SN SCT015 OVC025
FM041900 18011KT P6SM -SHRASN SCT025 OVC030
FM042300 19005KT P6SM OVC035
FM051000 13003KT 2SM BR SCT002 BKN060
KZSE FIR / North America



MET'MAP, your aeronautical weather chart ! - Copyright ORBIFLY December 2007 - Disclaimer

ORBIFLY MET'MAP TEAM :

Programming & Development : Alexandra Zaïnal
Original concept : Baudouin d'Aumeries
Technical & hardware support : Manuel Goepfert
Assistance : Marc-Olivier Méhu




SOURCES & CREDITS :

   NOAA       Earth
Advisory